createdAt,value
2019-04-04T00:02:37.740Z,5.60
2019-04-04T00:05:26.134Z,5.40
2019-04-04T00:08:14.521Z,5.30
2019-04-04T00:11:02.146Z,5.20
2019-04-04T00:13:49.540Z,5.10
2019-04-04T00:16:37.375Z,5.00
2019-04-04T00:19:25.365Z,4.90
2019-04-04T00:22:13.595Z,4.90
2019-04-04T00:25:01.794Z,4.80
2019-04-04T00:27:49.176Z,4.80
2019-04-04T00:30:37.083Z,4.80
2019-04-04T00:33:25.738Z,4.90
2019-04-04T00:36:14.077Z,4.70
2019-04-04T00:39:01.474Z,4.70
2019-04-04T00:41:49.814Z,4.60
2019-04-04T00:44:37.353Z,4.50
2019-04-04T00:47:25.009Z,4.50
2019-04-04T00:50:12.598Z,4.40
2019-04-04T00:53:00.751Z,4.40
2019-04-04T00:55:48.325Z,4.40
2019-04-04T00:58:35.828Z,4.30
2019-04-04T01:01:26.047Z,4.30
2019-04-04T01:04:13.174Z,4.20
2019-04-04T01:07:03.002Z,4.20
2019-04-04T01:09:50.652Z,4.20
2019-04-04T01:12:38.213Z,4.20
2019-04-04T01:15:26.248Z,4.20
2019-04-04T01:18:14.257Z,4.10
2019-04-04T01:21:01.786Z,4.20
2019-04-04T01:23:49.006Z,4.20
2019-04-04T01:26:37.090Z,4.20
2019-04-04T01:29:25.097Z,4.30
2019-04-04T01:32:12.552Z,4.40
2019-04-04T01:35:00.047Z,4.30
2019-04-04T01:37:47.505Z,4.20
2019-04-04T01:40:35.149Z,4.30
2019-04-04T01:43:22.370Z,4.40
2019-04-04T01:46:09.941Z,4.40
2019-04-04T01:48:57.584Z,4.40
2019-04-04T01:51:45.040Z,4.50
2019-04-04T01:54:32.880Z,4.60
2019-04-04T01:57:20.633Z,4.60
2019-04-04T02:00:10.268Z,4.60
2019-04-04T02:02:57.776Z,4.70
2019-04-04T02:05:45.633Z,4.70
2019-04-04T02:08:33.148Z,4.70
2019-04-04T02:11:20.954Z,4.80
2019-04-04T02:14:11.537Z,4.80
2019-04-04T02:16:57.880Z,4.90
2019-04-04T02:19:45.136Z,4.90
2019-04-04T02:22:33.304Z,4.80
2019-04-04T02:25:20.800Z,4.90
2019-04-04T02:28:08.948Z,4.90
2019-04-04T02:30:57.205Z,4.90
2019-04-04T02:33:44.629Z,4.90
2019-04-04T02:36:32.422Z,4.90
2019-04-04T02:39:20.305Z,5.00
2019-04-04T02:42:08.181Z,5.00
2019-04-04T02:44:56.156Z,5.10
2019-04-04T02:47:43.622Z,5.10
2019-04-04T02:50:34.338Z,5.00
2019-04-04T02:53:21.057Z,5.00
2019-04-04T02:56:08.645Z,5.00
2019-04-04T02:58:56.445Z,5.00
2019-04-04T03:01:43.956Z,5.10
2019-04-04T03:04:31.555Z,5.00
2019-04-04T03:07:19.233Z,5.10
2019-04-04T03:10:06.866Z,4.90
2019-04-04T03:12:57.997Z,4.90
2019-04-04T03:15:47.427Z,4.90
2019-04-04T03:18:34.727Z,5.00
2019-04-04T03:21:23.774Z,4.90
2019-04-04T03:24:11.470Z,5.00
2019-04-04T03:26:58.796Z,5.00
2019-04-04T03:29:46.274Z,4.90
2019-04-04T03:32:33.722Z,4.90
2019-04-04T03:35:25.621Z,4.90
2019-04-04T03:38:13.025Z,5.00
2019-04-04T03:41:00.102Z,5.00
2019-04-04T03:43:48.998Z,5.00
2019-04-04T03:46:38.814Z,5.10
2019-04-04T03:49:25.668Z,5.00
2019-04-04T03:52:13.103Z,5.00
2019-04-04T03:55:00.857Z,5.00
2019-04-04T03:57:48.804Z,5.00
2019-04-04T04:00:39.479Z,5.00
2019-04-04T04:03:25.982Z,5.10
2019-04-04T04:06:13.666Z,5.10
2019-04-04T04:09:01.289Z,5.10
2019-04-04T04:11:49.406Z,5.00
2019-04-04T04:14:37.078Z,5.10
2019-04-04T04:17:24.565Z,5.10
2019-04-04T04:20:12.709Z,5.20
2019-04-04T04:23:00.066Z,5.10
2019-04-04T04:25:47.450Z,5.00
2019-04-04T04:28:35.131Z,5.00
2019-04-04T04:31:22.648Z,4.90
2019-04-04T04:34:09.839Z,5.10
2019-04-04T04:36:57.496Z,5.00
2019-04-04T04:39:45.473Z,5.00
2019-04-04T04:42:32.834Z,5.00
2019-04-04T04:45:20.069Z,5.10
2019-04-04T04:48:07.617Z,5.20
2019-04-04T04:50:55.523Z,5.20
2019-04-04T04:53:43.284Z,5.20
2019-04-04T04:56:31.928Z,5.20
2019-04-04T04:59:19.552Z,5.20
2019-04-04T05:02:06.668Z,5.30
2019-04-04T05:04:53.852Z,5.20
2019-04-04T05:07:41.384Z,5.20
2019-04-04T05:10:28.716Z,5.30
2019-04-04T05:13:16.205Z,5.20
2019-04-04T05:16:05.179Z,5.30
2019-04-04T05:18:53.072Z,5.20
2019-04-04T05:21:40.604Z,5.30
2019-04-04T05:24:28.166Z,5.20
2019-04-04T05:27:16.615Z,5.20
2019-04-04T05:30:04.516Z,5.30
2019-04-04T05:32:56.143Z,5.30
2019-04-04T05:35:41.639Z,5.30
2019-04-04T05:38:28.885Z,5.30
2019-04-04T05:41:16.782Z,5.20
2019-04-04T05:44:04.460Z,5.20
2019-04-04T05:46:52.186Z,5.10
2019-04-04T05:49:39.821Z,5.10
2019-04-04T05:52:27.570Z,5.10
2019-04-04T05:55:15.428Z,5.20
2019-04-04T05:58:02.744Z,5.20
2019-04-04T06:00:50.305Z,5.20
2019-04-04T06:03:38.279Z,5.10
2019-04-04T06:06:26.278Z,5.00
2019-04-04T06:09:14.783Z,5.00
2019-04-04T06:12:02.524Z,4.90
2019-04-04T06:14:50.421Z,5.00
2019-04-04T06:17:39.127Z,5.10
2019-04-04T06:20:27.497Z,5.10
2019-04-04T06:23:14.935Z,5.10
2019-04-04T06:26:06.458Z,5.00
2019-04-04T06:28:51.917Z,5.00
2019-04-04T06:31:39.374Z,4.90
2019-04-04T06:34:26.897Z,4.90
2019-04-04T06:37:14.976Z,4.90
2019-04-04T06:40:02.837Z,5.00
2019-04-04T06:42:50.697Z,4.90
2019-04-04T06:45:38.287Z,5.00
2019-04-04T06:48:27.195Z,5.00
2019-04-04T06:51:15.125Z,4.90
2019-04-04T06:54:03.097Z,4.80
2019-04-04T06:56:50.928Z,4.70
2019-04-04T06:59:38.296Z,4.70
2019-04-04T07:02:26.084Z,4.70
2019-04-04T07:05:14.572Z,4.70
2019-04-04T07:08:02.774Z,4.60
2019-04-04T07:10:57.804Z,4.60
2019-04-04T07:13:42.593Z,4.60
2019-04-04T07:16:28.421Z,4.60
2019-04-04T07:19:16.232Z,4.60
2019-04-04T07:22:04.066Z,4.60
2019-04-04T07:24:52.384Z,4.60
2019-04-04T07:27:39.939Z,4.60
2019-04-04T07:30:28.403Z,4.50
2019-04-04T07:33:16.976Z,4.50
2019-04-04T07:36:05.060Z,4.60
2019-04-04T07:38:52.764Z,4.50
2019-04-04T07:41:44.678Z,4.50
2019-04-04T07:44:29.804Z,4.50
2019-04-04T07:47:17.299Z,4.50
2019-04-04T07:50:05.511Z,4.60
2019-04-04T07:52:53.252Z,4.60
2019-04-04T07:55:42.213Z,4.60
2019-04-04T07:58:29.603Z,4.50
2019-04-04T08:01:16.903Z,4.60
2019-04-04T08:04:06.482Z,4.70
2019-04-04T08:06:53.033Z,4.80
2019-04-04T08:09:40.634Z,4.90
2019-04-04T08:12:28.209Z,5.00
2019-04-04T08:15:15.888Z,5.00
2019-04-04T08:18:04.265Z,5.10
2019-04-04T08:20:51.877Z,5.10
2019-04-04T08:23:39.572Z,5.10
2019-04-04T08:26:27.152Z,5.10
2019-04-04T08:29:14.971Z,5.00
2019-04-04T08:32:02.943Z,5.20
2019-04-04T08:34:50.716Z,5.30
2019-04-04T08:37:38.624Z,5.20
2019-04-04T08:40:26.385Z,5.40
2019-04-04T08:43:14.312Z,5.50
2019-04-04T08:46:01.815Z,5.60
2019-04-04T08:48:49.328Z,5.50
2019-04-04T08:51:36.808Z,5.40
2019-04-04T08:54:24.411Z,5.30
2019-04-04T08:57:11.868Z,5.30
2019-04-04T08:59:59.573Z,5.30
2019-04-04T09:02:47.123Z,5.60
2019-04-04T09:05:34.669Z,5.70
2019-04-04T09:08:22.716Z,5.60
2019-04-04T09:11:10.656Z,5.70
2019-04-04T09:13:58.146Z,5.70
2019-04-04T09:16:45.643Z,5.80
2019-04-04T09:19:33.185Z,5.90
2019-04-04T09:22:23.868Z,5.90
2019-04-04T09:25:10.978Z,5.90
2019-04-04T09:27:58.873Z,5.80
2019-04-04T09:30:46.498Z,5.90
2019-04-04T09:33:33.973Z,6.30
2019-04-04T09:36:21.912Z,6.40
2019-04-04T09:39:09.722Z,6.50
2019-04-04T09:41:57.188Z,6.60
2019-04-04T09:44:44.884Z,6.50
2019-04-04T09:47:32.778Z,6.30
2019-04-04T09:50:20.280Z,6.10
2019-04-04T09:53:08.180Z,5.90
2019-04-04T09:55:55.722Z,5.90
2019-04-04T09:58:43.040Z,5.90
2019-04-04T10:01:30.420Z,5.90
2019-04-04T10:04:17.989Z,5.90
2019-04-04T10:07:06.096Z,5.90
2019-04-04T10:09:53.375Z,5.90
2019-04-04T10:12:40.656Z,6.00
2019-04-04T10:15:28.201Z,6.10
2019-04-04T10:18:16.056Z,6.10
2019-04-04T10:21:11.906Z,6.00
2019-04-04T10:23:52.881Z,6.00
2019-04-04T10:26:40.746Z,5.80
2019-04-04T10:29:28.563Z,5.80
2019-04-04T10:32:16.152Z,5.80
2019-04-04T10:35:04.077Z,5.80
2019-04-04T10:37:51.989Z,5.80
2019-04-04T10:40:39.648Z,6.00
2019-04-04T10:43:26.768Z,6.10
2019-04-04T10:46:14.208Z,6.30
2019-04-04T10:49:01.903Z,6.30
2019-04-04T10:51:49.455Z,6.20
2019-04-04T10:54:36.860Z,6.10
2019-04-04T10:57:24.464Z,6.00
2019-04-04T11:00:13.016Z,6.00
2019-04-04T11:03:01.084Z,5.90
2019-04-04T11:05:48.905Z,5.90
2019-04-04T11:08:36.911Z,5.90
2019-04-04T11:11:25.118Z,5.80
2019-04-04T11:14:12.917Z,5.70
2019-04-04T11:17:00.146Z,5.70
2019-04-04T11:19:47.749Z,5.70
2019-04-04T11:22:35.765Z,5.70
2019-04-04T11:25:23.408Z,5.60
2019-04-04T11:28:11.332Z,5.70
2019-04-04T11:30:59.048Z,5.80
2019-04-04T11:33:46.544Z,5.80
2019-04-04T11:36:34.019Z,5.70
2019-04-04T11:39:22.125Z,5.60
2019-04-04T11:42:09.872Z,5.60
2019-04-04T11:44:57.604Z,5.60
2019-04-04T11:47:44.804Z,5.70
2019-04-04T11:50:32.380Z,5.80
2019-04-04T11:53:20.435Z,5.80
2019-04-04T11:56:08.156Z,5.80
2019-04-04T11:58:55.664Z,5.80
2019-04-04T12:01:44.433Z,5.90
2019-04-04T12:04:31.790Z,5.80
2019-04-04T12:07:19.637Z,5.60
2019-04-04T12:10:08.254Z,5.60
2019-04-04T12:12:58.449Z,5.50
2019-04-04T12:15:45.525Z,5.70
2019-04-04T12:18:32.987Z,5.60
2019-04-04T12:21:20.413Z,5.60
2019-04-04T12:24:07.968Z,5.60
2019-04-04T12:26:55.644Z,5.50
2019-04-04T12:29:43.608Z,5.60
2019-04-04T12:32:31.028Z,5.60
2019-04-04T12:35:18.475Z,5.40
2019-04-04T12:38:06.160Z,5.50
2019-04-04T12:40:53.363Z,5.40
2019-04-04T12:43:41.153Z,5.40
2019-04-04T12:46:29.468Z,5.60
2019-04-04T12:49:17.120Z,5.60
2019-04-04T12:52:04.989Z,5.60
2019-04-04T12:54:52.451Z,5.80
2019-04-04T12:57:40.492Z,5.80
2019-04-04T13:00:27.896Z,5.80
2019-04-04T13:03:15.334Z,5.70
2019-04-04T13:06:02.785Z,5.80
2019-04-04T13:08:50.501Z,5.70
2019-04-04T13:11:38.391Z,5.60
2019-04-04T13:14:25.767Z,5.60
2019-04-04T13:17:13.256Z,5.50
2019-04-04T13:20:00.423Z,5.40
2019-04-04T13:22:47.757Z,5.40
2019-04-04T13:25:35.259Z,5.40
2019-04-04T13:28:22.677Z,5.40
2019-04-04T13:31:10.999Z,5.30
2019-04-04T13:33:58.771Z,5.30
2019-04-04T13:36:46.532Z,5.40
2019-04-04T13:39:34.465Z,5.30
2019-04-04T13:42:22.145Z,5.30
2019-04-04T13:45:10.081Z,5.20
2019-04-04T13:47:58.032Z,5.10
2019-04-04T13:50:45.748Z,5.10
2019-04-04T13:53:33.466Z,5.10
2019-04-04T13:56:20.968Z,5.20
2019-04-04T13:59:08.965Z,5.10
2019-04-04T14:01:56.566Z,5.10
2019-04-04T14:04:44.157Z,5.10
2019-04-04T14:07:31.656Z,5.10
2019-04-04T14:10:19.915Z,5.10
2019-04-04T14:13:07.278Z,5.10
2019-04-04T14:15:54.880Z,5.10
2019-04-04T14:18:44.443Z,5.20
2019-04-04T14:21:32.006Z,5.10
2019-04-04T14:24:19.826Z,5.20
2019-04-04T14:27:07.549Z,5.30
2019-04-04T14:29:55.359Z,5.30
2019-04-04T14:32:42.880Z,5.40
2019-04-04T14:35:30.555Z,5.30
2019-04-04T14:38:18.373Z,5.30
2019-04-04T14:41:11.510Z,5.40
2019-04-04T14:43:55.588Z,5.50
2019-04-04T14:46:43.329Z,5.70
2019-04-04T14:49:30.784Z,5.70
2019-04-04T14:52:19.925Z,5.90
2019-04-04T14:55:08.518Z,5.80
2019-04-04T14:57:55.827Z,5.80
2019-04-04T15:00:43.641Z,5.90
2019-04-04T15:03:31.058Z,5.90
2019-04-04T15:06:18.880Z,5.90
2019-04-04T15:09:09.762Z,5.90
2019-04-04T15:11:57.440Z,5.80
2019-04-04T15:14:44.944Z,5.70
2019-04-04T15:17:32.752Z,5.70
2019-04-04T15:20:20.816Z,5.80
2019-04-04T15:23:08.229Z,5.90
2019-04-04T15:25:56.236Z,6.00
2019-04-04T15:28:43.723Z,6.30
2019-04-04T15:31:31.848Z,6.50
2019-04-04T15:34:19.288Z,6.70
2019-04-04T15:37:06.822Z,6.90
2019-04-04T15:39:54.564Z,7.00
2019-04-04T15:42:41.962Z,6.70
2019-04-04T15:45:29.112Z,6.70
2019-04-04T15:48:16.737Z,6.60
2019-04-04T15:51:04.757Z,6.50
2019-04-04T15:53:52.292Z,6.40
2019-04-04T15:56:40.068Z,6.40
2019-04-04T15:59:27.624Z,6.60
2019-04-04T16:02:14.952Z,6.70
2019-04-04T16:05:02.473Z,6.60
2019-04-04T16:07:49.901Z,6.60
2019-04-04T16:10:38.497Z,6.70
2019-04-04T16:13:25.737Z,6.80
2019-04-04T16:16:13.013Z,6.80
2019-04-04T16:19:00.877Z,6.70
2019-04-04T16:21:48.616Z,6.80
2019-04-04T16:24:36.203Z,6.60
2019-04-04T16:27:23.930Z,6.50
2019-04-04T16:30:12.640Z,6.60
2019-04-04T16:33:00.486Z,6.60
2019-04-04T16:35:47.931Z,6.60
2019-04-04T16:38:35.219Z,6.50
2019-04-04T16:41:22.868Z,6.40
2019-04-04T16:44:10.480Z,6.30
2019-04-04T16:46:58.217Z,6.30
2019-04-04T16:49:46.004Z,6.30
2019-04-04T16:52:34.105Z,6.30
2019-04-04T16:55:21.576Z,6.20
2019-04-04T16:58:09.663Z,6.30
2019-04-04T17:00:57.417Z,6.20
2019-04-04T17:03:45.353Z,6.20
2019-04-04T17:06:32.852Z,6.30
2019-04-04T17:09:21.331Z,6.20
2019-04-04T17:12:14.691Z,6.10
2019-04-04T17:14:59.072Z,6.10
2019-04-04T17:17:46.707Z,6.10
2019-04-04T17:20:34.528Z,6.10
2019-04-04T17:23:21.652Z,6.10
2019-04-04T17:26:09.264Z,6.20
2019-04-04T17:28:57.294Z,6.20
2019-04-04T17:31:45.010Z,6.20
2019-04-04T17:34:34.046Z,6.20
2019-04-04T17:37:21.828Z,6.10
2019-04-04T17:40:10.343Z,6.00
2019-04-04T17:42:58.052Z,6.20
2019-04-04T17:45:45.245Z,6.00
2019-04-04T17:48:33.134Z,5.90
2019-04-04T17:51:20.636Z,5.90
2019-04-04T17:54:08.737Z,5.80
2019-04-04T17:56:56.232Z,5.80
2019-04-04T17:59:43.816Z,5.70
2019-04-04T18:02:31.038Z,5.60
2019-04-04T18:05:18.707Z,5.60
2019-04-04T18:08:06.168Z,5.60
2019-04-04T18:11:13.580Z,5.50
2019-04-04T18:14:01.216Z,5.50
2019-04-04T18:16:48.992Z,5.50
2019-04-04T18:19:36.512Z,5.50
2019-04-04T18:22:24.068Z,5.40
2019-04-04T18:25:12.892Z,5.40
2019-04-04T18:28:00.452Z,5.30
2019-04-04T18:30:47.692Z,5.30
2019-04-04T18:33:35.698Z,5.20
2019-04-04T18:36:23.176Z,5.20
2019-04-04T18:39:11.683Z,5.10
2019-04-04T18:41:58.977Z,5.10
2019-04-04T18:44:46.976Z,5.10
2019-04-04T18:47:34.477Z,5.00
2019-04-04T18:50:22.009Z,5.00
2019-04-04T18:53:09.521Z,5.00
2019-04-04T18:55:57.351Z,5.00
2019-04-04T18:58:45.120Z,5.00
2019-04-04T19:01:32.620Z,5.00
2019-04-04T19:04:20.206Z,5.00
2019-04-04T19:07:07.895Z,5.00
2019-04-04T19:09:55.044Z,5.00
2019-04-04T19:12:42.796Z,5.00
2019-04-04T19:15:30.116Z,5.00
2019-04-04T19:18:17.967Z,5.00
2019-04-04T19:21:05.837Z,5.00
2019-04-04T19:23:54.243Z,5.00
2019-04-04T19:26:42.076Z,5.00
2019-04-04T19:29:31.550Z,5.00
2019-04-04T19:32:19.187Z,5.00
2019-04-04T19:35:08.013Z,5.10
2019-04-04T19:38:00.361Z,5.20
2019-04-04T19:40:45.668Z,5.20
2019-04-04T19:43:33.070Z,5.10
2019-04-04T19:46:20.847Z,5.00
2019-04-04T19:49:08.384Z,5.10
2019-04-04T19:51:56.063Z,5.00
2019-04-04T19:54:43.516Z,5.00
2019-04-04T19:57:31.404Z,5.00
2019-04-04T20:00:19.896Z,4.90
2019-04-04T20:03:07.500Z,4.90
2019-04-04T20:05:55.317Z,4.90
2019-04-04T20:08:42.819Z,5.00
2019-04-04T20:11:30.748Z,5.00
2019-04-04T20:14:18.496Z,5.00
2019-04-04T20:17:06.240Z,5.00
2019-04-04T20:19:54.012Z,4.90
2019-04-04T20:22:41.896Z,5.00
2019-04-04T20:25:29.883Z,5.00
2019-04-04T20:28:17.391Z,4.90
2019-04-04T20:31:04.893Z,4.90
2019-04-04T20:34:01.475Z,4.90
2019-04-04T20:36:42.702Z,4.90
2019-04-04T20:39:30.025Z,4.80
2019-04-04T20:42:17.570Z,4.80
2019-04-04T20:45:05.842Z,4.90
2019-04-04T20:47:53.717Z,4.80
2019-04-04T20:50:41.581Z,4.80
2019-04-04T20:53:29.860Z,4.80
2019-04-04T20:56:18.227Z,4.70
2019-04-04T20:59:05.849Z,4.80
2019-04-04T21:01:53.713Z,4.80
2019-04-04T21:04:40.984Z,4.80
2019-04-04T21:07:28.486Z,4.80
2019-04-04T21:10:15.795Z,4.70
2019-04-04T21:13:03.792Z,4.80
2019-04-04T21:15:51.481Z,4.80
2019-04-04T21:18:39.655Z,4.90
2019-04-04T21:21:27.372Z,4.80
2019-04-04T21:24:14.988Z,4.90
2019-04-04T21:27:02.480Z,4.90
2019-04-04T21:29:50.072Z,4.90
2019-04-04T21:32:37.568Z,4.90
2019-04-04T21:35:25.340Z,4.80
2019-04-04T21:38:13.045Z,4.90
2019-04-04T21:41:00.521Z,4.80
2019-04-04T21:43:48.522Z,4.80
2019-04-04T21:46:36.337Z,4.80
2019-04-04T21:49:24.023Z,4.80
2019-04-04T21:52:11.464Z,4.80
2019-04-04T21:54:59.143Z,4.80
2019-04-04T21:57:46.675Z,4.80
2019-04-04T22:00:41.008Z,4.80
2019-04-04T22:03:28.884Z,4.80
2019-04-04T22:06:16.634Z,4.70
2019-04-04T22:09:07.137Z,4.80
2019-04-04T22:11:55.333Z,4.80
2019-04-04T22:14:43.020Z,4.80
2019-04-04T22:17:31.781Z,4.80
2019-04-04T22:20:19.447Z,4.70
2019-04-04T22:23:06.840Z,4.60
2019-04-04T22:25:54.905Z,4.70
2019-04-04T22:28:42.496Z,4.60
2019-04-04T22:31:30.828Z,4.70
2019-04-04T22:34:18.629Z,4.60
2019-04-04T22:37:06.428Z,4.60
2019-04-04T22:39:54.181Z,4.70
2019-04-04T22:42:42.247Z,4.60
2019-04-04T22:45:30.335Z,4.60
2019-04-04T22:48:17.769Z,4.70
2019-04-04T22:51:05.628Z,4.70
2019-04-04T22:53:53.200Z,4.70
2019-04-04T22:56:40.505Z,4.60
2019-04-04T22:59:28.344Z,4.60
2019-04-04T23:02:16.396Z,4.60
2019-04-04T23:05:04.544Z,4.60
2019-04-04T23:07:52.147Z,4.50
2019-04-04T23:10:39.797Z,4.60
2019-04-04T23:13:27.073Z,4.60
2019-04-04T23:16:14.915Z,4.60
2019-04-04T23:19:02.672Z,4.60
2019-04-04T23:21:50.056Z,4.60
2019-04-04T23:24:37.440Z,4.60
2019-04-04T23:27:24.828Z,4.60
2019-04-04T23:30:12.818Z,4.60
2019-04-04T23:33:00.312Z,4.60
2019-04-04T23:35:47.544Z,4.60
2019-04-04T23:38:35.594Z,4.50
2019-04-04T23:41:23.656Z,4.50
2019-04-04T23:44:11.137Z,4.50
2019-04-04T23:46:58.560Z,4.50
2019-04-04T23:49:46.060Z,4.50
2019-04-04T23:52:33.896Z,4.50
2019-04-04T23:55:21.288Z,4.40
2019-04-04T23:58:08.693Z,4.50
